Aviation Digital Data Service (ADDS)

Output produced by METARs form (0324 UTC 14 December 2018)
found at http://aviationweather.gov/metar/data/
 
KDTW 140304Z 1403/1506 07005KT 4SM BR SCT045 OVC080 
     TEMPO 1404/1406 4SM -RA BR OVC025 
     FM140600 14005KT 4SM -RA BR OVC015 
     TEMPO 1410/1414 2SM -RA BR OVC007 
     FM141400 VRB03KT 4SM BR OVC015 
     FM142000 26005KT P6SM BKN025 OVC040 
     FM150100 33005KT P6SM SCT040 BKN250
       
KJXN 140219Z 1402/1424 14004KT P6SM SCT016 OVC040 
     FM140300 14004KT 4SM -RA BR SCT008 OVC016 
     FM140500 14003KT 2SM RA BR OVC004 
     FM141600 VRB03KT 3SM BR BKN006 
     FM141800 34004KT P6SM SCT015
       
KLAN 140209Z 1402/1424 12004KT P6SM SCT020 BKN060 
     FM140400 13004KT 4SM -RA BR OVC015 
     FM140600 13004KT 2SM RA BR OVC004 
     FM141500 VRB03KT 3SM BR BKN006 
     FM141800 34004KT P6SM SCT015
       
KYIP 140306Z 1403/1424 07005KT 4SM BR SCT045 OVC080 
     TEMPO 1404/1406 4SM -RA BR OVC025 
     FM140600 14005KT 4SM -RA BR OVC015 
     TEMPO 1410/1414 2SM -RA BR OVC007 
     FM141400 VRB03KT 4SM BR OVC015 
     FM142000 26005KT P6SM BKN025 OVC040
       
KDET 140305Z 1403/1424 07005KT 4SM BR SCT045 OVC080 
     TEMPO 1404/1406 4SM -RA BR OVC025 
     FM140600 14005KT 4SM -RA BR OVC015 
     TEMPO 1410/1414 2SM -RA BR OVC007 
     FM141400 VRB03KT 4SM BR OVC015 
     FM142000 26005KT P6SM BKN025 OVC040
       
KTOL 140240Z 1403/1424 10005KT P6SM VCSH BKN050 
     TEMPO 1403/1406 6SM -RA 
     FM140600 13005KT P6SM VCSH OVC035 
     FM141200 VRB04KT P6SM OVC050
       
KGRR 140208Z 1402/1424 10004KT 4SM -SHRA BR SCT022 BKN060 
     FM140400 11004KT 4SM -RA BR OVC015 
     FM140600 11004KT 2SM RA BR OVC004 
     FM141300 07004KT 3SM BR OVC008 
     FM141500 05004KT 6SM BR BKN015 
     FM141800 29005KT P6SM SCT015